sensor_id;sensor_type;location;lat;lon;timestamp;temperature;humidity
10472;DHT22;5283;48.876;8.962;2023-04-25T00:02:01;6.70;99.90
10472;DHT22;5283;48.876;8.962;2023-04-25T00:04:29;6.70;99.90
10472;DHT22;5283;48.876;8.962;2023-04-25T00:06:56;6.80;99.90
10472;DHT22;5283;48.876;8.962;2023-04-25T00:09:23;6.90;99.90
10472;DHT22;5283;48.876;8.962;2023-04-25T00:11:50;6.80;99.90
10472;DHT22;5283;48.876;8.962;2023-04-25T00:14:17;6.80;99.90
10472;DHT22;5283;48.876;8.962;2023-04-25T00:16:44;6.70;99.90
10472;DHT22;5283;48.876;8.962;2023-04-25T00:19:11;6.60;99.90
10472;DHT22;5283;48.876;8.962;2023-04-25T00:21:38;6.50;99.90
10472;DHT22;5283;48.876;8.962;2023-04-25T00:24:07;6.40;99.90
10472;DHT22;5283;48.876;8.962;2023-04-25T00:26:34;6.40;99.90
10472;DHT22;5283;48.876;8.962;2023-04-25T00:29:02;6.40;99.90
10472;DHT22;5283;48.876;8.962;2023-04-25T00:31:29;6.30;99.90
10472;DHT22;5283;48.876;8.962;2023-04-25T00:33:56;6.20;99.90
10472;DHT22;5283;48.876;8.962;2023-04-25T00:36:23;6.20;99.90
10472;DHT22;5283;48.876;8.962;2023-04-25T00:38:50;6.20;99.90
10472;DHT22;5283;48.876;8.962;2023-04-25T00:41:17;6.10;99.90
10472;DHT22;5283;48.876;8.962;2023-04-25T00:43:45;6.20;99.90
10472;DHT22;5283;48.876;8.962;2023-04-25T00:46:12;6.20;99.90
10472;DHT22;5283;48.876;8.962;2023-04-25T00:48:39;6.20;99.90
10472;DHT22;5283;48.876;8.962;2023-04-25T00:51:06;6.20;99.90
10472;DHT22;5283;48.876;8.962;2023-04-25T00:53:33;6.20;99.90
10472;DHT22;5283;48.876;8.962;2023-04-25T00:56:00;6.20;99.90
10472;DHT22;5283;48.876;8.962;2023-04-25T00:58:29;6.20;99.90
10472;DHT22;5283;48.876;8.962;2023-04-25T01:00:56;6.20;99.90
10472;DHT22;5283;48.876;8.962;2023-04-25T01:03:23;6.20;99.90
10472;DHT22;5283;48.876;8.962;2023-04-25T01:05:51;6.10;99.90
10472;DHT22;5283;48.876;8.962;2023-04-25T01:08:18;6.00;99.90
10472;DHT22;5283;48.876;8.962;2023-04-25T01:10:44;5.90;99.90
10472;DHT22;5283;48.876;8.962;2023-04-25T01:13:11;5.70;99.90
10472;DHT22;5283;48.876;8.962;2023-04-25T01:15:38;5.60;99.90
10472;DHT22;5283;48.876;8.962;2023-04-25T01:18:05;5.50;99.90
10472;DHT22;5283;48.876;8.962;2023-04-25T01:20:33;5.50;99.90
10472;DHT22;5283;48.876;8.962;2023-04-25T01:23:01;5.40;99.90
10472;DHT22;5283;48.876;8.962;2023-04-25T01:25:32;5.40;99.90
10472;DHT22;5283;48.876;8.962;2023-04-25T01:28:02;5.50;99.90
10472;DHT22;5283;48.876;8.962;2023-04-25T01:30:29;5.50;99.90
10472;DHT22;5283;48.876;8.962;2023-04-25T01:32:57;5.50;99.90
10472;DHT22;5283;48.876;8.962;2023-04-25T01:35:25;5.50;99.90
10472;DHT22;5283;48.876;8.962;2023-04-25T01:37:52;5.50;99.90
10472;DHT22;5283;48.876;8.962;2023-04-25T01:40:21;5.50;99.90
10472;DHT22;5283;48.876;8.962;2023-04-25T01:42:49;5.60;99.90
10472;DHT22;5283;48.876;8.962;2023-04-25T01:45:16;5.70;99.90
10472;DHT22;5283;48.876;8.962;2023-04-25T01:47:50;5.80;99.90
10472;DHT22;5283;48.876;8.962;2023-04-25T01:50:18;5.80;99.90
10472;DHT22;5283;48.876;8.962;2023-04-25T01:52:45;5.90;99.90
10472;DHT22;5283;48.876;8.962;2023-04-25T01:55:12;5.90;99.90
10472;DHT22;5283;48.876;8.962;2023-04-25T01:57:39;5.90;99.90
10472;DHT22;5283;48.876;8.962;2023-04-25T02:00:06;5.90;99.90
10472;DHT22;5283;48.876;8.962;2023-04-25T02:02:33;5.90;99.90
10472;DHT22;5283;48.876;8.962;2023-04-25T02:05:00;5.90;99.90
10472;DHT22;5283;48.876;8.962;2023-04-25T02:07:27;5.90;99.90
10472;DHT22;5283;48.876;8.962;2023-04-25T02:09:54;5.90;99.90
10472;DHT22;5283;48.876;8.962;2023-04-25T02:12:20;5.80;99.90
10472;DHT22;5283;48.876;8.962;2023-04-25T02:14:47;5.70;99.90
10472;DHT22;5283;48.876;8.962;2023-04-25T02:17:14;5.60;99.90
10472;DHT22;5283;48.876;8.962;2023-04-25T02:19:40;5.50;99.90
10472;DHT22;5283;48.876;8.962;2023-04-25T02:22:07;5.50;99.90
10472;DHT22;5283;48.876;8.962;2023-04-25T02:24:34;5.60;99.90
10472;DHT22;5283;48.876;8.962;2023-04-25T02:27:01;5.70;99.90
10472;DHT22;5283;48.876;8.962;2023-04-25T02:29:28;5.70;99.90
10472;DHT22;5283;48.876;8.962;2023-04-25T02:31:55;5.80;99.90
10472;DHT22;5283;48.876;8.962;2023-04-25T02:34:22;5.70;99.90
10472;DHT22;5283;48.876;8.962;2023-04-25T02:36:49;5.80;99.90
10472;DHT22;5283;48.876;8.962;2023-04-25T02:39:17;5.80;99.90
10472;DHT22;5283;48.876;8.962;2023-04-25T02:41:44;5.80;99.90
10472;DHT22;5283;48.876;8.962;2023-04-25T02:44:11;5.80;99.90
10472;DHT22;5283;48.876;8.962;2023-04-25T02:46:37;5.80;99.90
10472;DHT22;5283;48.876;8.962;2023-04-25T02:49:05;5.70;99.90
10472;DHT22;5283;48.876;8.962;2023-04-25T02:51:32;5.70;99.90
10472;DHT22;5283;48.876;8.962;2023-04-25T02:53:59;5.70;99.90
10472;DHT22;5283;48.876;8.962;2023-04-25T02:56:26;5.70;99.90
10472;DHT22;5283;48.876;8.962;2023-04-25T02:58:53;5.70;99.90
10472;DHT22;5283;48.876;8.962;2023-04-25T03:01:20;5.70;99.90
10472;DHT22;5283;48.876;8.962;2023-04-25T03:03:48;5.60;99.90
10472;DHT22;5283;48.876;8.962;2023-04-25T03:06:14;5.50;99.90
10472;DHT22;5283;48.876;8.962;2023-04-25T03:08:42;5.30;99.90
10472;DHT22;5283;48.876;8.962;2023-04-25T03:11:09;5.20;99.90
10472;DHT22;5283;48.876;8.962;2023-04-25T03:13:36;5.00;99.90
10472;DHT22;5283;48.876;8.962;2023-04-25T03:16:03;5.00;99.90
10472;DHT22;5283;48.876;8.962;2023-04-25T03:18:29;5.10;99.90
10472;DHT22;5283;48.876;8.962;2023-04-25T03:20:56;5.10;99.90
10472;DHT22;5283;48.876;8.962;2023-04-25T03:23:23;5.10;99.90
10472;DHT22;5283;48.876;8.962;2023-04-25T03:25:50;5.20;99.90
10472;DHT22;5283;48.876;8.962;2023-04-25T03:28:16;5.20;99.90
10472;DHT22;5283;48.876;8.962;2023-04-25T03:30:43;5.30;99.90
10472;DHT22;5283;48.876;8.962;2023-04-25T03:33:10;5.30;99.90
10472;DHT22;5283;48.876;8.962;2023-04-25T03:35:38;5.40;99.90
10472;DHT22;5283;48.876;8.962;2023-04-25T03:38:05;5.50;99.90
10472;DHT22;5283;48.876;8.962;2023-04-25T03:40:32;5.50;99.90
10472;DHT22;5283;48.876;8.962;2023-04-25T03:42:59;5.60;99.90
10472;DHT22;5283;48.876;8.962;2023-04-25T03:45:25;5.60;99.90
10472;DHT22;5283;48.876;8.962;2023-04-25T03:47:52;5.60;99.90
10472;DHT22;5283;48.876;8.962;2023-04-25T03:50:19;5.60;99.90
10472;DHT22;5283;48.876;8.962;2023-04-25T03:52:46;5.60;99.90
10472;DHT22;5283;48.876;8.962;2023-04-25T03:55:13;5.60;99.90
10472;DHT22;5283;48.876;8.962;2023-04-25T03:57:40;5.60;99.90
10472;DHT22;5283;48.876;8.962;2023-04-25T04:00:07;5.60;99.90
10472;DHT22;5283;48.876;8.962;2023-04-25T04:02:34;5.60;99.90
10472;DHT22;5283;48.876;8.962;2023-04-25T04:05:03;5.70;99.90
10472;DHT22;5283;48.876;8.962;2023-04-25T04:07:30;5.70;99.90
10472;DHT22;5283;48.876;8.962;2023-04-25T04:09:59;5.80;99.90
10472;DHT22;5283;48.876;8.962;2023-04-25T04:12:26;6.00;99.90
10472;DHT22;5283;48.876;8.962;2023-04-25T04:14:53;6.00;99.90
10472;DHT22;5283;48.876;8.962;2023-04-25T04:17:48;6.10;99.90
10472;DHT22;5283;48.876;8.962;2023-04-25T04:20:37;6.10;99.90
10472;DHT22;5283;48.876;8.962;2023-04-25T04:23:03;6.20;99.90
10472;DHT22;5283;48.876;8.962;2023-04-25T04:25:31;6.20;99.90
10472;DHT22;5283;48.876;8.962;2023-04-25T04:27:58;6.20;99.90
10472;DHT22;5283;48.876;8.962;2023-04-25T04:30:25;6.30;99.90
10472;DHT22;5283;48.876;8.962;2023-04-25T04:32:52;6.30;99.90
10472;DHT22;5283;48.876;8.962;2023-04-25T04:35:19;6.30;99.90
10472;DHT22;5283;48.876;8.962;2023-04-25T04:37:45;6.40;99.90
10472;DHT22;5283;48.876;8.962;2023-04-25T04:40:12;6.40;99.90
10472;DHT22;5283;48.876;8.962;2023-04-25T04:42:45;6.40;99.90
10472;DHT22;5283;48.876;8.962;2023-04-25T04:45:12;6.50;99.90
10472;DHT22;5283;48.876;8.962;2023-04-25T04:47:39;6.60;99.90
10472;DHT22;5283;48.876;8.962;2023-04-25T04:50:08;6.60;99.90
10472;DHT22;5283;48.876;8.962;2023-04-25T04:52:36;6.60;99.90
10472;DHT22;5283;48.876;8.962;2023-04-25T04:55:04;6.60;99.90
10472;DHT22;5283;48.876;8.962;2023-04-25T04:57:31;6.70;99.90
10472;DHT22;5283;48.876;8.962;2023-04-25T04:59:59;6.70;99.90
10472;DHT22;5283;48.876;8.962;2023-04-25T05:02:26;6.70;99.90
10472;DHT22;5283;48.876;8.962;2023-04-25T05:04:53;6.70;99.90
10472;DHT22;5283;48.876;8.962;2023-04-25T05:07:19;6.70;99.90
10472;DHT22;5283;48.876;8.962;2023-04-25T05:09:46;6.70;99.90
10472;DHT22;5283;48.876;8.962;2023-04-25T05:12:13;6.70;99.90
10472;DHT22;5283;48.876;8.962;2023-04-25T05:14:39;6.70;99.90
10472;DHT22;5283;48.876;8.962;2023-04-25T05:17:06;6.70;99.90
10472;DHT22;5283;48.876;8.962;2023-04-25T05:19:34;6.70;99.90
10472;DHT22;5283;48.876;8.962;2023-04-25T05:22:02;6.70;99.90
10472;DHT22;5283;48.876;8.962;2023-04-25T05:24:29;6.80;99.90
10472;DHT22;5283;48.876;8.962;2023-04-25T05:26:57;6.90;99.90
10472;DHT22;5283;48.876;8.962;2023-04-25T05:29:24;6.90;99.90
10472;DHT22;5283;48.876;8.962;2023-04-25T05:31:50;6.90;99.90
10472;DHT22;5283;48.876;8.962;2023-04-25T05:34:17;6.90;99.90
10472;DHT22;5283;48.876;8.962;2023-04-25T05:36:44;6.90;99.90
10472;DHT22;5283;48.876;8.962;2023-04-25T05:39:11;6.90;99.90
10472;DHT22;5283;48.876;8.962;2023-04-25T05:41:37;6.90;99.90
10472;DHT22;5283;48.876;8.962;2023-04-25T05:44:04;6.80;99.90
10472;DHT22;5283;48.876;8.962;2023-04-25T05:46:33;6.80;99.90
10472;DHT22;5283;48.876;8.962;2023-04-25T05:49:00;6.80;99.90
10472;DHT22;5283;48.876;8.962;2023-04-25T05:51:27;6.90;99.90
10472;DHT22;5283;48.876;8.962;2023-04-25T05:53:54;7.00;99.90
10472;DHT22;5283;48.876;8.962;2023-04-25T05:56:20;7.10;99.90
10472;DHT22;5283;48.876;8.962;2023-04-25T05:58:47;7.30;99.90
10472;DHT22;5283;48.876;8.962;2023-04-25T06:01:14;7.40;99.90
10472;DHT22;5283;48.876;8.962;2023-04-25T06:03:40;7.50;99.90
10472;DHT22;5283;48.876;8.962;2023-04-25T06:06:09;7.60;99.90
10472;DHT22;5283;48.876;8.962;2023-04-25T06:08:36;7.70;99.90
10472;DHT22;5283;48.876;8.962;2023-04-25T06:11:04;7.90;99.90
10472;DHT22;5283;48.876;8.962;2023-04-25T06:13:31;7.90;99.90
10472;DHT22;5283;48.876;8.962;2023-04-25T06:15:58;8.00;99.90
10472;DHT22;5283;48.876;8.962;2023-04-25T06:18:24;8.10;99.90
10472;DHT22;5283;48.876;8.962;2023-04-25T06:20:51;7.90;99.90
10472;DHT22;5283;48.876;8.962;2023-04-25T06:23:18;7.90;99.90
10472;DHT22;5283;48.876;8.962;2023-04-25T06:25:45;7.90;99.90
10472;DHT22;5283;48.876;8.962;2023-04-25T06:28:11;8.00;99.90
10472;DHT22;5283;48.876;8.962;2023-04-25T06:30:38;8.00;99.90
10472;DHT22;5283;48.876;8.962;2023-04-25T06:33:05;8.00;99.90
10472;DHT22;5283;48.876;8.962;2023-04-25T06:35:31;8.10;99.90
10472;DHT22;5283;48.876;8.962;2023-04-25T06:37:59;8.00;99.90
10472;DHT22;5283;48.876;8.962;2023-04-25T06:40:26;8.00;99.90
10472;DHT22;5283;48.876;8.962;2023-04-25T06:42:53;8.20;99.90
10472;DHT22;5283;48.876;8.962;2023-04-25T06:45:20;8.40;99.90
10472;DHT22;5283;48.876;8.962;2023-04-25T06:47:46;8.40;99.90
10472;DHT22;5283;48.876;8.962;2023-04-25T06:50:13;8.30;99.90
10472;DHT22;5283;48.876;8.962;2023-04-25T06:52:40;8.30;99.90
10472;DHT22;5283;48.876;8.962;2023-04-25T06:55:07;8.30;99.90
10472;DHT22;5283;48.876;8.962;2023-04-25T06:57:34;8.30;99.90
10472;DHT22;5283;48.876;8.962;2023-04-25T07:00:07;8.30;99.90
10472;DHT22;5283;48.876;8.962;2023-04-25T07:02:36;8.40;99.90
10472;DHT22;5283;48.876;8.962;2023-04-25T07:05:03;8.50;99.90
10472;DHT22;5283;48.876;8.962;2023-04-25T07:07:30;8.50;99.90
10472;DHT22;5283;48.876;8.962;2023-04-25T07:09:57;8.60;99.90
10472;DHT22;5283;48.876;8.962;2023-04-25T07:12:24;8.50;99.90
10472;DHT22;5283;48.876;8.962;2023-04-25T07:14:51;8.30;99.90
10472;DHT22;5283;48.876;8.962;2023-04-25T07:17:17;8.30;99.90
10472;DHT22;5283;48.876;8.962;2023-04-25T07:19:44;8.20;99.90
10472;DHT22;5283;48.876;8.962;2023-04-25T07:22:11;8.20;99.90
10472;DHT22;5283;48.876;8.962;2023-04-25T07:24:38;8.20;99.90
10472;DHT22;5283;48.876;8.962;2023-04-25T07:27:05;8.10;99.90
10472;DHT22;5283;48.876;8.962;2023-04-25T07:29:32;8.00;99.90
10472;DHT22;5283;48.876;8.962;2023-04-25T07:31:59;8.00;99.90
10472;DHT22;5283;48.876;8.962;2023-04-25T07:34:26;7.90;99.90
10472;DHT22;5283;48.876;8.962;2023-04-25T07:36:52;7.90;99.90
10472;DHT22;5283;48.876;8.962;2023-04-25T07:39:20;7.90;99.90
10472;DHT22;5283;48.876;8.962;2023-04-25T07:41:46;7.80;99.90
10472;DHT22;5283;48.876;8.962;2023-04-25T07:44:13;7.70;99.90
10472;DHT22;5283;48.876;8.962;2023-04-25T07:46:40;7.60;99.90
10472;DHT22;5283;48.876;8.962;2023-04-25T07:49:06;7.60;99.90
10472;DHT22;5283;48.876;8.962;2023-04-25T07:51:33;7.40;99.90
10472;DHT22;5283;48.876;8.962;2023-04-25T07:54:00;7.40;99.90
10472;DHT22;5283;48.876;8.962;2023-04-25T07:56:27;7.30;99.90
10472;DHT22;5283;48.876;8.962;2023-04-25T07:58:53;7.30;99.90
10472;DHT22;5283;48.876;8.962;2023-04-25T08:01:20;7.30;99.90
10472;DHT22;5283;48.876;8.962;2023-04-25T08:03:48;7.20;99.90
10472;DHT22;5283;48.876;8.962;2023-04-25T08:06:14;7.20;99.90
10472;DHT22;5283;48.876;8.962;2023-04-25T08:08:41;7.20;99.90
10472;DHT22;5283;48.876;8.962;2023-04-25T08:11:08;7.30;99.90
10472;DHT22;5283;48.876;8.962;2023-04-25T08:13:35;7.20;99.90
10472;DHT22;5283;48.876;8.962;2023-04-25T08:16:01;7.30;99.90
10472;DHT22;5283;48.876;8.962;2023-04-25T08:18:28;7.40;99.90
10472;DHT22;5283;48.876;8.962;2023-04-25T08:20:55;7.50;99.90
10472;DHT22;5283;48.876;8.962;2023-04-25T08:23:22;7.60;99.90
10472;DHT22;5283;48.876;8.962;2023-04-25T08:25:49;7.60;99.90
10472;DHT22;5283;48.876;8.962;2023-04-25T08:28:16;7.80;99.90
10472;DHT22;5283;48.876;8.962;2023-04-25T08:30:48;8.00;99.90
10472;DHT22;5283;48.876;8.962;2023-04-25T08:33:15;8.20;99.90
10472;DHT22;5283;48.876;8.962;2023-04-25T08:35:43;8.30;99.90
10472;DHT22;5283;48.876;8.962;2023-04-25T08:38:10;8.50;99.90
10472;DHT22;5283;48.876;8.962;2023-04-25T08:40:38;8.50;99.90
10472;DHT22;5283;48.876;8.962;2023-04-25T08:43:08;8.60;99.90
10472;DHT22;5283;48.876;8.962;2023-04-25T08:45:42;8.60;99.90
10472;DHT22;5283;48.876;8.962;2023-04-25T08:48:11;8.60;99.90
10472;DHT22;5283;48.876;8.962;2023-04-25T08:50:50;8.60;99.90
10472;DHT22;5283;48.876;8.962;2023-04-25T08:53:25;8.60;99.90
10472;DHT22;5283;48.876;8.962;2023-04-25T08:55:53;8.50;99.90
10472;DHT22;5283;48.876;8.962;2023-04-25T08:58:20;8.50;99.90
10472;DHT22;5283;48.876;8.962;2023-04-25T09:00:48;8.40;99.90
10472;DHT22;5283;48.876;8.962;2023-04-25T09:03:17;8.40;99.90
10472;DHT22;5283;48.876;8.962;2023-04-25T09:05:44;8.30;99.90
10472;DHT22;5283;48.876;8.962;2023-04-25T09:08:11;8.50;99.90
10472;DHT22;5283;48.876;8.962;2023-04-25T09:10:38;8.30;99.90
10472;DHT22;5283;48.876;8.962;2023-04-25T09:13:08;8.30;99.90
10472;DHT22;5283;48.876;8.962;2023-04-25T09:15:52;8.30;99.90
10472;DHT22;5283;48.876;8.962;2023-04-25T09:18:32;8.30;99.90
10472;DHT22;5283;48.876;8.962;2023-04-25T09:23:46;8.10;99.90
10472;DHT22;5283;48.876;8.962;2023-04-25T09:26:16;8.00;99.90
10472;DHT22;5283;48.876;8.962;2023-04-25T09:28:44;7.90;99.90
10472;DHT22;5283;48.876;8.962;2023-04-25T09:31:12;7.80;99.90
10472;DHT22;5283;48.876;8.962;2023-04-25T09:33:40;7.70;99.90
10472;DHT22;5283;48.876;8.962;2023-04-25T09:36:09;7.60;99.90
10472;DHT22;5283;48.876;8.962;2023-04-25T09:38:42;7.60;99.90
10472;DHT22;5283;48.876;8.962;2023-04-25T09:41:10;7.60;99.90
10472;DHT22;5283;48.876;8.962;2023-04-25T09:43:38;7.60;99.90
10472;DHT22;5283;48.876;8.962;2023-04-25T09:46:11;7.70;99.90
10472;DHT22;5283;48.876;8.962;2023-04-25T09:48:38;7.70;99.90
10472;DHT22;5283;48.876;8.962;2023-04-25T09:51:11;7.60;99.90
10472;DHT22;5283;48.876;8.962;2023-04-25T09:53:39;7.70;99.90
10472;DHT22;5283;48.876;8.962;2023-04-25T09:56:08;7.70;99.90
10472;DHT22;5283;48.876;8.962;2023-04-25T09:58:37;7.70;99.90
10472;DHT22;5283;48.876;8.962;2023-04-25T10:01:09;7.60;99.90
10472;DHT22;5283;48.876;8.962;2023-04-25T10:03:38;7.60;99.90
10472;DHT22;5283;48.876;8.962;2023-04-25T10:06:12;7.60;99.90
10472;DHT22;5283;48.876;8.962;2023-04-25T10:08:39;7.50;99.90
10472;DHT22;5283;48.876;8.962;2023-04-25T10:11:08;7.20;99.90
10472;DHT22;5283;48.876;8.962;2023-04-25T10:13:35;6.70;99.90
10472;DHT22;5283;48.876;8.962;2023-04-25T10:16:04;6.40;99.90
10472;DHT22;5283;48.876;8.962;2023-04-25T10:18:32;6.20;99.90
10472;DHT22;5283;48.876;8.962;2023-04-25T10:21:04;6.20;99.90
10472;DHT22;5283;48.876;8.962;2023-04-25T10:23:32;6.40;99.90
10472;DHT22;5283;48.876;8.962;2023-04-25T10:26:01;6.40;99.90
10472;DHT22;5283;48.876;8.962;2023-04-25T10:28:28;6.50;99.90
10472;DHT22;5283;48.876;8.962;2023-04-25T10:30:59;6.50;99.90
10472;DHT22;5283;48.876;8.962;2023-04-25T10:33:33;6.60;99.90
10472;DHT22;5283;48.876;8.962;2023-04-25T10:38:36;6.70;99.90
10472;DHT22;5283;48.876;8.962;2023-04-25T10:41:05;6.70;99.90
10472;DHT22;5283;48.876;8.962;2023-04-25T10:43:42;6.40;99.90
10472;DHT22;5283;48.876;8.962;2023-04-25T10:46:24;6.70;99.90
10472;DHT22;5283;48.876;8.962;2023-04-25T10:48:52;6.80;99.90
10472;DHT22;5283;48.876;8.962;2023-04-25T10:53:59;6.70;99.90
10472;DHT22;5283;48.876;8.962;2023-04-25T10:56:31;6.70;99.90
10472;DHT22;5283;48.876;8.962;2023-04-25T10:59:14;6.60;99.90
10472;DHT22;5283;48.876;8.962;2023-04-25T11:01:43;6.50;99.90
10472;DHT22;5283;48.876;8.962;2023-04-25T11:04:20;6.60;99.90
10472;DHT22;5283;48.876;8.962;2023-04-25T11:09:37;6.80;99.90
10472;DHT22;5283;48.876;8.962;2023-04-25T11:12:06;6.90;99.90
10472;DHT22;5283;48.876;8.962;2023-04-25T11:14:33;7.00;99.90
10472;DHT22;5283;48.876;8.962;2023-04-25T11:17:00;7.00;99.90
10472;DHT22;5283;48.876;8.962;2023-04-25T11:19:29;7.00;99.90
10472;DHT22;5283;48.876;8.962;2023-04-25T11:22:01;7.10;99.90
10472;DHT22;5283;48.876;8.962;2023-04-25T11:24:32;7.00;99.90
10472;DHT22;5283;48.876;8.962;2023-04-25T11:27:04;6.80;99.90
10472;DHT22;5283;48.876;8.962;2023-04-25T11:29:33;6.80;99.90
10472;DHT22;5283;48.876;8.962;2023-04-25T11:32:01;6.80;99.90
10472;DHT22;5283;48.876;8.962;2023-04-25T11:34:29;6.80;99.90
10472;DHT22;5283;48.876;8.962;2023-04-25T11:37:02;6.80;99.90
10472;DHT22;5283;48.876;8.962;2023-04-25T11:39:29;6.80;99.90
10472;DHT22;5283;48.876;8.962;2023-04-25T11:41:56;6.80;99.90
10472;DHT22;5283;48.876;8.962;2023-04-25T11:44:23;6.90;99.90
10472;DHT22;5283;48.876;8.962;2023-04-25T11:46:50;6.90;99.90
10472;DHT22;5283;48.876;8.962;2023-04-25T11:49:17;6.80;99.90
10472;DHT22;5283;48.876;8.962;2023-04-25T11:51:46;7.00;99.90
10472;DHT22;5283;48.876;8.962;2023-04-25T11:54:14;7.00;99.90
10472;DHT22;5283;48.876;8.962;2023-04-25T11:56:45;7.20;99.90
10472;DHT22;5283;48.876;8.962;2023-04-25T11:59:13;7.50;99.90
10472;DHT22;5283;48.876;8.962;2023-04-25T12:01:41;7.90;99.90
10472;DHT22;5283;48.876;8.962;2023-04-25T12:06:46;8.70;99.90
10472;DHT22;5283;48.876;8.962;2023-04-25T12:09:16;8.70;99.90
10472;DHT22;5283;48.876;8.962;2023-04-25T12:11:48;8.90;99.90
10472;DHT22;5283;48.876;8.962;2023-04-25T12:14:23;9.10;99.90
10472;DHT22;5283;48.876;8.962;2023-04-25T12:16:51;9.20;99.90
10472;DHT22;5283;48.876;8.962;2023-04-25T12:19:19;9.30;99.90
10472;DHT22;5283;48.876;8.962;2023-04-25T12:21:47;9.20;99.90
10472;DHT22;5283;48.876;8.962;2023-04-25T12:24:27;9.10;99.90
10472;DHT22;5283;48.876;8.962;2023-04-25T12:27:03;9.10;99.90
10472;DHT22;5283;48.876;8.962;2023-04-25T12:29:32;9.10;99.90
10472;DHT22;5283;48.876;8.962;2023-04-25T12:32:00;9.10;99.90
10472;DHT22;5283;48.876;8.962;2023-04-25T12:34:32;9.40;99.90
10472;DHT22;5283;48.876;8.962;2023-04-25T12:36:58;9.50;99.90
10472;DHT22;5283;48.876;8.962;2023-04-25T12:39:25;9.80;99.90
10472;DHT22;5283;48.876;8.962;2023-04-25T12:41:52;9.80;99.90
10472;DHT22;5283;48.876;8.962;2023-04-25T12:44:21;9.80;99.90
10472;DHT22;5283;48.876;8.962;2023-04-25T12:46:48;9.90;99.90
10472;DHT22;5283;48.876;8.962;2023-04-25T12:49:15;9.90;99.90
10472;DHT22;5283;48.876;8.962;2023-04-25T12:51:44;9.70;99.90
10472;DHT22;5283;48.876;8.962;2023-04-25T12:54:10;9.40;99.90
10472;DHT22;5283;48.876;8.962;2023-04-25T12:56:37;9.20;99.90
10472;DHT22;5283;48.876;8.962;2023-04-25T12:59:04;9.10;99.90
10472;DHT22;5283;48.876;8.962;2023-04-25T13:01:31;9.20;99.90
10472;DHT22;5283;48.876;8.962;2023-04-25T13:03:59;9.30;99.90
10472;DHT22;5283;48.876;8.962;2023-04-25T13:06:26;9.30;99.90
10472;DHT22;5283;48.876;8.962;2023-04-25T13:08:53;9.30;99.90
10472;DHT22;5283;48.876;8.962;2023-04-25T13:11:20;9.30;99.90
10472;DHT22;5283;48.876;8.962;2023-04-25T13:13:47;9.10;99.90
10472;DHT22;5283;48.876;8.962;2023-04-25T13:16:14;9.10;99.90
10472;DHT22;5283;48.876;8.962;2023-04-25T13:18:41;9.00;99.90
10472;DHT22;5283;48.876;8.962;2023-04-25T13:21:09;9.10;99.90
10472;DHT22;5283;48.876;8.962;2023-04-25T13:23:37;9.20;99.90
10472;DHT22;5283;48.876;8.962;2023-04-25T13:26:04;9.70;99.90
10472;DHT22;5283;48.876;8.962;2023-04-25T13:28:30;9.70;99.90
10472;DHT22;5283;48.876;8.962;2023-04-25T13:30:57;9.60;99.90
10472;DHT22;5283;48.876;8.962;2023-04-25T13:33:24;9.80;99.90
10472;DHT22;5283;48.876;8.962;2023-04-25T13:35:52;9.70;99.90
10472;DHT22;5283;48.876;8.962;2023-04-25T13:38:24;9.80;99.90
10472;DHT22;5283;48.876;8.962;2023-04-25T13:40:52;9.80;99.90
10472;DHT22;5283;48.876;8.962;2023-04-25T13:43:19;10.00;99.90
10472;DHT22;5283;48.876;8.962;2023-04-25T13:45:51;10.10;99.90
10472;DHT22;5283;48.876;8.962;2023-04-25T13:48:18;10.30;99.90
10472;DHT22;5283;48.876;8.962;2023-04-25T13:50:45;10.40;99.90
10472;DHT22;5283;48.876;8.962;2023-04-25T13:53:12;10.80;99.90
10472;DHT22;5283;48.876;8.962;2023-04-25T13:55:39;11.20;99.90
10472;DHT22;5283;48.876;8.962;2023-04-25T13:58:06;11.40;99.90
10472;DHT22;5283;48.876;8.962;2023-04-25T14:00:37;11.40;99.90
10472;DHT22;5283;48.876;8.962;2023-04-25T14:03:05;11.20;99.90
10472;DHT22;5283;48.876;8.962;2023-04-25T14:05:35;10.90;99.90
10472;DHT22;5283;48.876;8.962;2023-04-25T14:08:08;10.60;99.90
10472;DHT22;5283;48.876;8.962;2023-04-25T14:10:36;10.20;99.90
10472;DHT22;5283;48.876;8.962;2023-04-25T14:13:03;10.30;99.90
10472;DHT22;5283;48.876;8.962;2023-04-25T14:15:34;10.20;99.90
10472;DHT22;5283;48.876;8.962;2023-04-25T14:18:01;10.40;99.90
10472;DHT22;5283;48.876;8.962;2023-04-25T14:20:28;10.20;99.90
10472;DHT22;5283;48.876;8.962;2023-04-25T14:22:55;10.20;99.90
10472;DHT22;5283;48.876;8.962;2023-04-25T14:25:24;10.20;99.90
10472;DHT22;5283;48.876;8.962;2023-04-25T14:27:51;10.30;99.90
10472;DHT22;5283;48.876;8.962;2023-04-25T14:30:19;10.40;99.90
10472;DHT22;5283;48.876;8.962;2023-04-25T14:32:48;10.30;99.90
10472;DHT22;5283;48.876;8.962;2023-04-25T14:35:15;10.50;99.90
10472;DHT22;5283;48.876;8.962;2023-04-25T14:37:42;10.50;99.90
10472;DHT22;5283;48.876;8.962;2023-04-25T14:40:09;10.50;99.90
10472;DHT22;5283;48.876;8.962;2023-04-25T14:42:37;10.40;99.90
10472;DHT22;5283;48.876;8.962;2023-04-25T14:45:05;10.70;99.90
10472;DHT22;5283;48.876;8.962;2023-04-25T14:47:34;10.80;99.90
10472;DHT22;5283;48.876;8.962;2023-04-25T14:50:01;10.90;99.90
10472;DHT22;5283;48.876;8.962;2023-04-25T14:52:28;11.00;99.90
10472;DHT22;5283;48.876;8.962;2023-04-25T14:54:55;11.00;99.90
10472;DHT22;5283;48.876;8.962;2023-04-25T14:57:21;11.20;99.90
10472;DHT22;5283;48.876;8.962;2023-04-25T14:59:48;11.00;99.90
10472;DHT22;5283;48.876;8.962;2023-04-25T15:02:15;11.00;99.90
10472;DHT22;5283;48.876;8.962;2023-04-25T15:04:42;10.90;99.90
10472;DHT22;5283;48.876;8.962;2023-04-25T15:07:09;10.80;99.90
10472;DHT22;5283;48.876;8.962;2023-04-25T15:09:35;10.70;99.90
10472;DHT22;5283;48.876;8.962;2023-04-25T15:12:02;10.70;99.90
10472;DHT22;5283;48.876;8.962;2023-04-25T15:14:29;11.00;99.90
10472;DHT22;5283;48.876;8.962;2023-04-25T15:16:55;11.20;99.90
10472;DHT22;5283;48.876;8.962;2023-04-25T15:19:22;11.30;99.90
10472;DHT22;5283;48.876;8.962;2023-04-25T15:21:49;11.50;99.90
10472;DHT22;5283;48.876;8.962;2023-04-25T15:24:16;11.50;99.90
10472;DHT22;5283;48.876;8.962;2023-04-25T15:26:43;11.50;99.90
10472;DHT22;5283;48.876;8.962;2023-04-25T15:29:11;11.10;99.90
10472;DHT22;5283;48.876;8.962;2023-04-25T15:31:38;10.90;99.90
10472;DHT22;5283;48.876;8.962;2023-04-25T15:34:05;10.80;99.90
10472;DHT22;5283;48.876;8.962;2023-04-25T15:36:32;10.70;99.90
10472;DHT22;5283;48.876;8.962;2023-04-25T15:38:59;10.70;99.90
10472;DHT22;5283;48.876;8.962;2023-04-25T15:41:25;10.60;99.90
10472;DHT22;5283;48.876;8.962;2023-04-25T15:43:52;10.50;99.90
10472;DHT22;5283;48.876;8.962;2023-04-25T15:46:20;10.40;99.90
10472;DHT22;5283;48.876;8.962;2023-04-25T15:48:49;10.40;99.90
10472;DHT22;5283;48.876;8.962;2023-04-25T15:51:16;10.20;99.90
10472;DHT22;5283;48.876;8.962;2023-04-25T15:53:43;10.20;99.90
10472;DHT22;5283;48.876;8.962;2023-04-25T15:56:09;10.10;99.90
10472;DHT22;5283;48.876;8.962;2023-04-25T15:58:36;10.10;99.90
10472;DHT22;5283;48.876;8.962;2023-04-25T16:01:03;10.00;99.90
10472;DHT22;5283;48.876;8.962;2023-04-25T16:03:31;10.00;99.90
10472;DHT22;5283;48.876;8.962;2023-04-25T16:05:59;10.10;99.90
10472;DHT22;5283;48.876;8.962;2023-04-25T16:08:26;10.10;99.90
10472;DHT22;5283;48.876;8.962;2023-04-25T16:10:55;10.20;99.90
10472;DHT22;5283;48.876;8.962;2023-04-25T16:13:22;10.20;99.90
10472;DHT22;5283;48.876;8.962;2023-04-25T16:15:49;10.30;99.90
10472;DHT22;5283;48.876;8.962;2023-04-25T16:18:16;10.40;99.90